createdAt,value
2022-09-09T00:01:37.477Z,75.76
2022-09-09T00:04:16.700Z,76.24
2022-09-09T00:07:07.992Z,76.02
2022-09-09T00:10:19.921Z,75.78
2022-09-09T00:13:09.043Z,76.71
2022-09-09T00:15:48.144Z,76.57
2022-09-09T00:18:27.169Z,75.91
2022-09-09T00:21:07.504Z,76.30
2022-09-09T00:23:40.774Z,76.03
2022-09-09T00:26:37.116Z,76.33
2022-09-09T00:29:15.544Z,75.74
2022-09-09T00:31:45.548Z,74.74
2022-09-09T00:34:20.927Z,75.31
2022-09-09T00:36:51.097Z,75.16
2022-09-09T00:39:36.046Z,75.74
2022-09-09T00:42:18.934Z,74.75
2022-09-09T00:45:03.193Z,75.26
2022-09-09T00:47:32.933Z,76.20
2022-09-09T00:50:31.139Z,75.79
2022-09-09T00:53:25.271Z,75.70
2022-09-09T00:56:03.213Z,76.08
2022-09-09T00:58:30.312Z,76.40
2022-09-09T01:01:12.489Z,75.48
2022-09-09T01:03:43.095Z,74.96
2022-09-09T01:06:17.823Z,74.40
2022-09-09T01:08:53.622Z,75.54
2022-09-09T01:11:33.322Z,75.91
2022-09-09T01:14:27.196Z,76.19
2022-09-09T01:17:01.192Z,75.47
2022-09-09T01:20:14.221Z,75.78
2022-09-09T01:23:12.094Z,76.10
2022-09-09T01:26:17.241Z,77.21
2022-09-09T01:28:47.744Z,77.40
2022-09-09T01:31:20.879Z,76.95
2022-09-09T01:33:48.467Z,76.46
2022-09-09T01:36:39.301Z,76.52
2022-09-09T01:39:06.301Z,76.44
2022-09-09T01:41:33.467Z,75.80
2022-09-09T01:44:00.543Z,75.74
2022-09-09T01:46:30.429Z,75.64
2022-09-09T01:49:00.426Z,75.38
2022-09-09T01:51:27.599Z,76.75
2022-09-09T01:53:54.463Z,75.64
2022-09-09T01:56:39.506Z,76.18
2022-09-09T01:59:15.406Z,76.35
2022-09-09T02:02:17.854Z,76.14
2022-09-09T02:04:49.282Z,75.52
2022-09-09T02:07:42.231Z,77.07
2022-09-09T02:10:23.468Z,77.05
2022-09-09T02:13:01.716Z,76.48
2022-09-09T02:15:32.688Z,77.29
2022-09-09T02:18:03.442Z,77.12
2022-09-09T02:20:35.272Z,76.74
2022-09-09T02:23:03.926Z,76.91
2022-09-09T02:25:31.203Z,76.29
2022-09-09T02:28:01.569Z,76.86
2022-09-09T02:30:32.154Z,76.48
2022-09-09T02:33:03.420Z,77.67
2022-09-09T02:35:32.367Z,77.56
2022-09-09T02:38:05.353Z,77.53
2022-09-09T02:40:32.300Z,77.59
2022-09-09T02:43:01.450Z,77.21
2022-09-09T02:45:56.482Z,76.82
2022-09-09T02:48:37.554Z,77.31
2022-09-09T02:51:11.592Z,78.03
2022-09-09T02:53:45.752Z,78.20
2022-09-09T02:56:24.689Z,79.11
2022-09-09T02:58:53.181Z,78.73
2022-09-09T03:01:20.205Z,78.96
2022-09-09T03:03:47.857Z,78.52
2022-09-09T03:06:15.754Z,78.62
2022-09-09T03:08:49.192Z,79.32
2022-09-09T03:11:18.057Z,78.55
2022-09-09T03:13:44.961Z,78.62
2022-09-09T03:16:11.995Z,78.49
2022-09-09T03:18:39.031Z,79.72
2022-09-09T03:21:06.452Z,78.74
2022-09-09T03:23:33.419Z,79.68
2022-09-09T03:26:00.355Z,79.63
2022-09-09T03:28:32.617Z,79.59
2022-09-09T03:31:04.843Z,79.97
2022-09-09T03:33:32.673Z,79.68
2022-09-09T03:35:59.628Z,79.40
2022-09-09T03:38:26.802Z,79.01
2022-09-09T03:40:58.771Z,79.41
2022-09-09T03:43:26.994Z,79.05
2022-09-09T03:45:58.182Z,79.59
2022-09-09T03:48:27.189Z,79.78
2022-09-09T03:50:55.402Z,78.49
2022-09-09T03:53:24.483Z,78.50
2022-09-09T03:55:56.302Z,78.55
2022-09-09T03:58:25.494Z,78.72
2022-09-09T04:01:10.178Z,78.17
2022-09-09T04:03:37.126Z,78.73
2022-09-09T04:06:06.018Z,77.86
2022-09-09T04:08:33.232Z,77.89
2022-09-09T04:11:02.947Z,78.37
2022-09-09T04:13:30.157Z,78.92
2022-09-09T04:15:59.865Z,79.47
2022-09-09T04:18:29.426Z,79.06
2022-09-09T04:20:59.936Z,78.54
2022-09-09T04:23:30.793Z,78.91
2022-09-09T04:25:58.660Z,79.97
2022-09-09T04:28:28.121Z,79.33
2022-09-09T04:30:55.212Z,78.95
2022-09-09T04:33:22.367Z,78.38
2022-09-09T04:35:51.599Z,78.96
2022-09-09T04:38:19.515Z,79.04
2022-09-09T04:40:49.923Z,78.90
2022-09-09T04:43:17.080Z,79.22
2022-09-09T04:45:44.800Z,78.98
2022-09-09T04:48:12.530Z,80.29
2022-09-09T04:50:39.401Z,80.25
2022-09-09T04:53:06.879Z,79.96
2022-09-09T04:55:35.753Z,79.06
2022-09-09T04:58:07.668Z,79.34
2022-09-09T05:00:37.168Z,78.91
2022-09-09T05:03:06.400Z,79.15
2022-09-09T05:05:36.921Z,79.00
2022-09-09T05:08:08.526Z,79.16
2022-09-09T05:10:38.553Z,78.85
2022-09-09T05:13:05.985Z,79.64
2022-09-09T05:15:32.910Z,79.74
2022-09-09T05:18:01.467Z,79.73
2022-09-09T05:20:29.335Z,79.78
2022-09-09T05:22:57.770Z,79.29
2022-09-09T05:25:28.667Z,79.96
2022-09-09T05:27:55.751Z,79.70
2022-09-09T05:30:25.975Z,78.18
2022-09-09T05:32:53.082Z,78.97
2022-09-09T05:35:20.574Z,78.94
2022-09-09T05:37:47.491Z,79.01
2022-09-09T05:40:14.760Z,79.46
2022-09-09T05:42:42.624Z,80.36
2022-09-09T05:45:10.549Z,80.08
2022-09-09T05:47:38.673Z,79.71
2022-09-09T05:50:06.335Z,80.30
2022-09-09T05:52:34.007Z,79.78
2022-09-09T05:55:01.097Z,79.57
2022-09-09T05:57:28.149Z,78.76
2022-09-09T05:59:55.092Z,80.30
2022-09-09T06:02:22.347Z,79.13
2022-09-09T06:04:49.372Z,78.76
2022-09-09T06:07:16.297Z,78.91
2022-09-09T06:09:43.205Z,78.25
2022-09-09T06:12:10.541Z,78.17
2022-09-09T06:14:38.080Z,78.67
2022-09-09T06:17:06.413Z,78.36
2022-09-09T06:19:39.045Z,78.14
2022-09-09T06:22:06.708Z,77.42
2022-09-09T06:24:34.300Z,77.95
2022-09-09T06:27:01.670Z,78.72
2022-09-09T06:29:28.623Z,78.11
2022-09-09T06:31:55.644Z,78.65
2022-09-09T06:34:22.936Z,78.75
2022-09-09T06:36:49.968Z,78.74
2022-09-09T06:39:16.977Z,77.67
2022-09-09T06:41:44.310Z,78.09
2022-09-09T06:44:13.195Z,77.93
2022-09-09T06:46:41.677Z,77.47
2022-09-09T06:49:10.421Z,77.41
2022-09-09T06:51:44.160Z,77.92
2022-09-09T06:54:13.102Z,77.73
2022-09-09T06:56:43.321Z,77.37
2022-09-09T06:59:11.398Z,78.25
2022-09-09T07:01:42.168Z,78.71
2022-09-09T07:04:10.308Z,77.43
2022-09-09T07:06:39.477Z,77.23
2022-09-09T07:09:08.428Z,76.92
2022-09-09T07:11:50.030Z,76.73
2022-09-09T07:14:17.506Z,77.04
2022-09-09T07:16:47.172Z,77.34
2022-09-09T07:19:15.860Z,77.69
2022-09-09T07:21:43.830Z,77.10
2022-09-09T07:24:13.660Z,76.75
2022-09-09T07:26:41.544Z,76.77
2022-09-09T07:29:09.941Z,76.40
2022-09-09T07:31:39.166Z,76.09
2022-09-09T07:34:06.842Z,76.40
2022-09-09T07:36:41.377Z,76.44
2022-09-09T07:39:11.266Z,75.81
2022-09-09T07:41:43.769Z,75.84
2022-09-09T07:44:17.733Z,76.31
2022-09-09T07:46:46.624Z,76.17
2022-09-09T07:49:14.028Z,76.26
2022-09-09T07:51:44.436Z,76.98
2022-09-09T07:54:17.579Z,77.23
2022-09-09T07:56:44.647Z,77.24
2022-09-09T07:59:12.067Z,76.70
2022-09-09T08:01:42.144Z,75.91
2022-09-09T08:04:16.547Z,76.16
2022-09-09T08:06:50.452Z,77.20
2022-09-09T08:09:17.826Z,77.51
2022-09-09T08:11:45.446Z,77.65
2022-09-09T08:14:13.436Z,76.24
2022-09-09T08:16:43.418Z,77.10
2022-09-09T08:19:10.909Z,76.22
2022-09-09T08:21:41.385Z,75.96
2022-09-09T08:24:11.820Z,76.00
2022-09-09T08:26:42.825Z,75.70
2022-09-09T08:29:11.950Z,75.50
2022-09-09T08:31:44.397Z,75.50
2022-09-09T08:34:14.997Z,75.00
2022-09-09T08:36:45.348Z,75.31
2022-09-09T08:39:15.443Z,75.80
2022-09-09T08:42:03.713Z,75.51
2022-09-09T08:44:48.887Z,75.44
2022-09-09T08:47:44.091Z,75.83
2022-09-09T08:50:17.268Z,75.57
2022-09-09T08:53:07.301Z,75.78
2022-09-09T08:55:51.210Z,76.18
2022-09-09T08:58:32.769Z,75.53
2022-09-09T09:01:21.059Z,75.20
2022-09-09T09:04:25.555Z,75.68
2022-09-09T09:07:07.407Z,77.15
2022-09-09T09:10:09.167Z,75.95
2022-09-09T09:12:45.936Z,75.71
2022-09-09T09:15:18.623Z,77.34
2022-09-09T09:17:45.609Z,76.65
2022-09-09T09:20:16.491Z,76.40
2022-09-09T09:22:51.977Z,76.62
2022-09-09T09:25:22.336Z,76.01
2022-09-09T09:28:07.039Z,76.54
2022-09-09T09:30:42.871Z,76.12
2022-09-09T09:33:28.485Z,76.56
2022-09-09T09:35:55.404Z,76.13
2022-09-09T09:41:12.779Z,76.46
2022-09-09T09:43:43.902Z,76.88
2022-09-09T09:46:26.994Z,76.86
2022-09-09T09:49:02.780Z,77.19
2022-09-09T09:51:31.977Z,76.67
2022-09-09T09:54:17.433Z,76.42
2022-09-09T09:56:45.498Z,75.43
2022-09-09T09:59:41.311Z,75.54
2022-09-09T10:02:18.460Z,75.66
2022-09-09T10:04:49.189Z,75.75
2022-09-09T10:07:21.246Z,75.96
2022-09-09T10:09:55.868Z,75.99
2022-09-09T10:12:36.575Z,76.26
2022-09-09T10:15:12.723Z,76.50
2022-09-09T10:17:42.737Z,76.78
2022-09-09T10:20:09.693Z,77.68
2022-09-09T10:22:36.665Z,77.12
2022-09-09T10:25:03.638Z,76.09
2022-09-09T10:28:08.426Z,75.79
2022-09-09T10:30:50.822Z,75.10
2022-09-09T10:33:33.852Z,75.59
2022-09-09T10:36:23.647Z,75.35
2022-09-09T10:39:04.504Z,75.09
2022-09-09T10:41:43.502Z,76.50
2022-09-09T10:44:27.636Z,76.48
2022-09-09T10:47:09.632Z,76.29
2022-09-09T10:49:59.657Z,76.97
2022-09-09T10:52:50.005Z,76.16
2022-09-09T10:55:21.134Z,75.84
2022-09-09T10:57:51.643Z,75.45
2022-09-09T11:00:21.312Z,75.64
2022-09-09T11:03:01.667Z,76.46
2022-09-09T11:05:55.178Z,75.58
2022-09-09T11:08:25.846Z,74.94
2022-09-09T11:11:00.161Z,74.88
2022-09-09T11:13:45.643Z,75.80
2022-09-09T11:16:34.583Z,75.76
2022-09-09T11:19:06.101Z,76.00
2022-09-09T11:21:42.760Z,76.42
2022-09-09T11:24:19.725Z,76.26
2022-09-09T11:26:58.475Z,76.09
2022-09-09T11:29:50.768Z,75.97
2022-09-09T11:32:33.623Z,76.14
2022-09-09T11:35:38.274Z,77.39
2022-09-09T11:38:29.068Z,76.18
2022-09-09T11:41:11.324Z,78.00
2022-09-09T11:43:44.280Z,76.76
2022-09-09T11:46:13.759Z,76.29
2022-09-09T11:48:59.641Z,76.53
2022-09-09T11:51:29.822Z,76.62
2022-09-09T11:54:00.003Z,76.97
2022-09-09T11:56:46.991Z,77.28
2022-09-09T11:59:29.130Z,77.67
2022-09-09T12:02:03.042Z,77.57
2022-09-09T12:04:34.395Z,77.09
2022-09-09T12:07:10.794Z,78.57
2022-09-09T12:10:22.397Z,77.78
2022-09-09T12:12:49.375Z,76.74
2022-09-09T12:15:24.662Z,77.90
2022-09-09T12:17:54.636Z,77.19
2022-09-09T12:20:23.426Z,77.03
2022-09-09T12:23:06.294Z,76.94
2022-09-09T12:25:48.280Z,76.41
2022-09-09T12:28:23.841Z,76.65
2022-09-09T12:30:58.941Z,77.51
2022-09-09T12:33:26.145Z,77.58
2022-09-09T12:35:59.122Z,78.60
2022-09-09T12:38:35.505Z,78.54
2022-09-09T12:41:02.424Z,78.11
2022-09-09T12:43:29.670Z,77.80
2022-09-09T12:46:04.336Z,78.98
2022-09-09T12:48:39.047Z,78.98
2022-09-09T12:51:18.287Z,79.39
2022-09-09T12:53:47.269Z,78.66
2022-09-09T12:56:22.711Z,78.58
2022-09-09T12:58:55.381Z,78.57
2022-09-09T13:01:31.062Z,78.20
2022-09-09T13:04:01.635Z,77.81
2022-09-09T13:06:33.117Z,77.38
2022-09-09T13:09:02.467Z,77.72
2022-09-09T13:11:37.180Z,78.16
2022-09-09T13:14:04.524Z,78.58
2022-09-09T13:16:36.596Z,77.79
2022-09-09T13:19:17.248Z,77.86
2022-09-09T13:21:44.458Z,78.64
2022-09-09T13:24:28.675Z,79.47
2022-09-09T13:27:03.191Z,78.80
2022-09-09T13:29:31.637Z,78.54
2022-09-09T13:32:18.255Z,78.54
2022-09-09T13:34:54.282Z,78.05
2022-09-09T13:37:29.289Z,78.28
2022-09-09T13:39:56.550Z,77.87
2022-09-09T13:42:30.507Z,78.83
2022-09-09T13:44:59.622Z,78.69
2022-09-09T13:47:33.806Z,78.17
2022-09-09T13:50:23.681Z,78.29
2022-09-09T13:52:55.411Z,79.48
2022-09-09T13:55:24.420Z,79.33
2022-09-09T13:58:03.394Z,79.02
2022-09-09T14:00:32.542Z,78.44
2022-09-09T14:02:59.537Z,78.38
2022-09-09T14:05:26.682Z,78.02
2022-09-09T14:07:53.653Z,78.28
2022-09-09T14:10:20.867Z,78.60
2022-09-09T14:12:48.079Z,78.02
2022-09-09T14:15:15.710Z,77.74
2022-09-09T14:17:43.108Z,77.52
2022-09-09T14:20:13.113Z,77.95
2022-09-09T14:22:42.854Z,77.55
2022-09-09T14:25:10.034Z,76.64
2022-09-09T14:27:37.011Z,76.28
2022-09-09T14:30:04.419Z,75.68
2022-09-09T14:32:31.370Z,76.15
2022-09-09T14:34:58.303Z,76.21
2022-09-09T14:37:25.483Z,76.41
2022-09-09T14:39:52.694Z,76.54
2022-09-09T14:42:20.151Z,76.34
2022-09-09T14:44:47.095Z,77.14
2022-09-09T14:47:14.004Z,75.86
2022-09-09T14:49:42.717Z,75.59
2022-09-09T14:52:15.128Z,76.14
2022-09-09T14:54:42.058Z,75.25
2022-09-09T14:57:09.068Z,75.11
2022-09-09T14:59:36.090Z,75.12
2022-09-09T15:02:05.648Z,75.66
2022-09-09T15:04:32.878Z,76.08
2022-09-09T15:07:00.322Z,76.62
2022-09-09T15:09:27.223Z,76.17
2022-09-09T15:11:54.278Z,76.00
2022-09-09T15:14:22.419Z,77.01
2022-09-09T15:16:52.279Z,76.60
2022-09-09T15:19:19.234Z,76.20
2022-09-09T15:21:46.259Z,76.26
2022-09-09T15:24:14.907Z,77.30
2022-09-09T15:26:42.073Z,77.79
2022-09-09T15:29:09.752Z,77.36
2022-09-09T15:31:37.485Z,76.39
2022-09-09T15:34:06.889Z,75.96
2022-09-09T15:36:39.513Z,76.57
2022-09-09T15:39:11.027Z,76.01
2022-09-09T15:41:38.046Z,76.32
2022-09-09T15:44:04.986Z,76.06
2022-09-09T15:46:38.545Z,75.97
2022-09-09T15:49:12.298Z,75.70
2022-09-09T15:51:43.173Z,75.64
2022-09-09T15:54:19.843Z,76.71
2022-09-09T15:56:50.030Z,77.46
2022-09-09T15:59:17.499Z,76.84
2022-09-09T16:01:45.243Z,76.38
2022-09-09T16:04:13.216Z,76.60
2022-09-09T16:06:40.455Z,76.74
2022-09-09T16:09:08.724Z,77.10
2022-09-09T16:11:38.424Z,76.62
2022-09-09T16:14:07.802Z,76.90
2022-09-09T16:16:36.480Z,77.29
2022-09-09T16:19:08.972Z,77.92
2022-09-09T16:21:38.888Z,77.93
2022-09-09T16:24:07.747Z,78.17
2022-09-09T16:26:37.486Z,77.78
2022-09-09T16:29:04.656Z,78.01
2022-09-09T16:31:33.596Z,78.34
2022-09-09T16:34:00.830Z,78.01
2022-09-09T16:36:32.802Z,77.94
2022-09-09T16:39:02.051Z,77.59
2022-09-09T16:41:30.700Z,77.76
2022-09-09T16:44:03.714Z,78.04
2022-09-09T16:46:32.810Z,77.45
2022-09-09T16:49:01.300Z,78.13
2022-09-09T16:51:31.337Z,77.92
2022-09-09T16:54:01.069Z,78.48
2022-09-09T16:56:29.706Z,79.02
2022-09-09T16:58:58.921Z,77.91
2022-09-09T17:01:32.835Z,77.85
2022-09-09T17:04:02.625Z,77.63
2022-09-09T17:06:31.783Z,77.83
2022-09-09T17:09:01.001Z,77.77
2022-09-09T17:11:28.391Z,78.93
2022-09-09T17:13:56.594Z,78.48
2022-09-09T17:16:26.147Z,78.81
2022-09-09T17:18:53.642Z,78.77
2022-09-09T17:21:23.564Z,78.63
2022-09-09T17:23:51.045Z,78.53
2022-09-09T17:26:20.229Z,78.42
2022-09-09T17:28:47.485Z,79.01
2022-09-09T17:31:18.150Z,79.03
2022-09-09T17:33:49.320Z,78.42
2022-09-09T17:36:17.254Z,78.24
2022-09-09T17:38:45.529Z,77.84
2022-09-09T17:41:30.565Z,77.56
2022-09-09T17:43:58.516Z,77.78
2022-09-09T17:46:31.074Z,77.39
2022-09-09T17:49:01.054Z,78.04
2022-09-09T17:51:30.914Z,77.50
2022-09-09T17:54:01.129Z,77.68
2022-09-09T17:56:32.488Z,78.04
2022-09-09T17:59:00.803Z,77.62
2022-09-09T18:01:34.040Z,78.04
2022-09-09T18:04:04.387Z,78.11
2022-09-09T18:06:38.405Z,78.24
2022-09-09T18:09:13.891Z,78.25
2022-09-09T18:11:45.543Z,78.22
2022-09-09T18:14:16.699Z,78.18
2022-09-09T18:16:44.072Z,78.75
2022-09-09T18:19:14.088Z,78.38
2022-09-09T18:21:43.329Z,78.24
2022-09-09T18:24:12.065Z,78.08
2022-09-09T18:26:40.722Z,77.89
2022-09-09T18:29:11.376Z,77.56
2022-09-09T18:31:39.046Z,77.51
2022-09-09T18:34:08.711Z,77.53
2022-09-09T18:36:39.870Z,77.39
2022-09-09T18:39:08.442Z,77.85
2022-09-09T18:41:40.856Z,77.18
2022-09-09T18:44:13.979Z,77.26
2022-09-09T18:46:41.523Z,77.32
2022-09-09T18:49:12.978Z,77.85
2022-09-09T18:51:41.536Z,78.03
2022-09-09T18:54:16.665Z,78.29
2022-09-09T18:56:44.266Z,78.15
2022-09-09T18:59:14.556Z,78.88
2022-09-09T19:01:42.585Z,78.44
2022-09-09T19:04:09.865Z,78.29
2022-09-09T19:06:45.386Z,78.72
2022-09-09T19:09:18.198Z,77.97
2022-09-09T19:11:46.326Z,77.15
2022-09-09T19:14:16.040Z,77.74
2022-09-09T19:16:43.259Z,77.61
2022-09-09T19:19:18.031Z,77.79
2022-09-09T19:21:45.302Z,77.64
2022-09-09T19:24:24.650Z,77.63
2022-09-09T19:26:54.400Z,77.40
2022-09-09T19:29:26.710Z,77.00
2022-09-09T19:32:36.510Z,76.73
2022-09-09T19:34:44.404Z,77.12
2022-09-09T19:37:16.347Z,76.88
2022-09-09T19:39:46.336Z,77.24
2022-09-09T19:42:13.583Z,77.57
2022-09-09T19:44:40.611Z,77.31
2022-09-09T19:47:07.561Z,77.02
2022-09-09T19:49:35.553Z,77.11
2022-09-09T19:52:02.845Z,77.01
2022-09-09T19:54:29.765Z,77.63
2022-09-09T19:56:56.950Z,77.86
2022-09-09T19:59:24.171Z,78.08
2022-09-09T20:01:51.653Z,77.80
2022-09-09T20:04:18.994Z,77.61
2022-09-09T20:06:46.215Z,77.77
2022-09-09T20:09:15.966Z,77.90
2022-09-09T20:11:44.693Z,78.85
2022-09-09T20:14:12.577Z,77.98
2022-09-09T20:16:39.913Z,78.55
2022-09-09T20:19:08.633Z,78.08
2022-09-09T20:21:45.258Z,78.17
2022-09-09T20:24:16.887Z,78.89
2022-09-09T20:26:44.753Z,78.20
2022-09-09T20:29:16.244Z,77.99
2022-09-09T20:31:44.652Z,78.14
2022-09-09T20:34:14.369Z,77.53
2022-09-09T20:36:42.114Z,77.55
2022-09-09T20:39:10.945Z,78.32
2022-09-09T20:41:40.082Z,78.62
2022-09-09T20:44:11.596Z,78.50
2022-09-09T20:46:43.372Z,78.29
2022-09-09T20:49:11.727Z,78.31
2022-09-09T20:51:39.019Z,78.12
2022-09-09T20:54:08.999Z,78.06
2022-09-09T20:56:38.969Z,78.11
2022-09-09T20:59:14.500Z,78.21
2022-09-09T21:01:42.449Z,78.07
2022-09-09T21:04:10.099Z,77.63
2022-09-09T21:06:37.374Z,77.67
2022-09-09T21:09:05.157Z,78.35
2022-09-09T21:11:33.089Z,78.12
2022-09-09T21:14:00.032Z,77.63
2022-09-09T21:16:28.344Z,77.15
2022-09-09T21:18:55.499Z,77.25
2022-09-09T21:21:22.921Z,77.57
2022-09-09T21:23:50.859Z,77.59
2022-09-09T21:26:19.838Z,77.47
2022-09-09T21:28:46.937Z,77.52
2022-09-09T21:31:19.014Z,77.00
2022-09-09T21:33:46.558Z,77.88
2022-09-09T21:36:14.663Z,78.09
2022-09-09T21:38:42.304Z,78.02
2022-09-09T21:41:14.731Z,78.67
2022-09-09T21:43:43.479Z,78.61
2022-09-09T21:46:17.966Z,78.04
2022-09-09T21:48:45.282Z,78.42
2022-09-09T21:51:15.208Z,78.04
2022-09-09T21:53:43.666Z,77.86
2022-09-09T21:56:13.570Z,77.95
2022-09-09T21:58:43.572Z,77.88
2022-09-09T22:01:11.804Z,78.95
2022-09-09T22:03:39.409Z,78.74
2022-09-09T22:06:07.675Z,78.92
2022-09-09T22:08:34.820Z,79.16
2022-09-09T22:11:14.344Z,78.99
2022-09-09T22:13:42.891Z,78.56
2022-09-09T22:16:12.713Z,78.74
2022-09-09T22:18:40.384Z,78.61
2022-09-09T22:21:13.395Z,79.48
2022-09-09T22:23:40.328Z,79.03
2022-09-09T22:26:07.902Z,78.99
2022-09-09T22:28:36.213Z,78.45
2022-09-09T22:31:03.237Z,78.75
2022-09-09T22:33:30.441Z,78.40
2022-09-09T22:35:57.427Z,77.08
2022-09-09T22:38:24.476Z,77.38
2022-09-09T22:40:52.189Z,77.07
2022-09-09T22:43:22.119Z,77.44
2022-09-09T22:45:50.515Z,77.71
2022-09-09T22:48:17.690Z,77.55
2022-09-09T22:50:45.350Z,78.24
2022-09-09T22:53:17.077Z,78.57
2022-09-09T22:55:54.809Z,78.37
2022-09-09T22:58:22.741Z,79.94
2022-09-09T23:00:49.827Z,79.41
2022-09-09T23:03:17.054Z,79.54
2022-09-09T23:05:43.935Z,79.59
2022-09-09T23:08:11.248Z,79.33
2022-09-09T23:10:43.516Z,79.39
2022-09-09T23:13:10.432Z,79.78
2022-09-09T23:15:37.839Z,78.98
2022-09-09T23:18:05.214Z,80.51
2022-09-09T23:20:32.404Z,79.97
2022-09-09T23:22:59.248Z,80.15
2022-09-09T23:25:27.712Z,79.32
2022-09-09T23:27:54.689Z,79.12
2022-09-09T23:30:21.952Z,79.15
2022-09-09T23:32:52.073Z,78.34
2022-09-09T23:35:19.321Z,78.36
2022-09-09T23:37:46.290Z,78.08
2022-09-09T23:40:13.230Z,78.45
2022-09-09T23:42:40.165Z,78.32
2022-09-09T23:45:07.970Z,78.31
2022-09-09T23:47:34.903Z,78.32
2022-09-09T23:50:02.815Z,78.63
2022-09-09T23:52:29.802Z,78.66
2022-09-09T23:54:56.888Z,78.94
2022-09-09T23:57:24.185Z,78.56
2022-09-09T23:59:51.136Z,78.62
